sensor_id;sensor_type;location;lat;lon;timestamp;pressure;altitude;pressure_sealevel;temperature
58307;BMP280;44116;50.884;4.768;2023-04-23T00:00:27;100140.0;;;7.7
58307;BMP280;44116;50.884;4.768;2023-04-23T00:02:26;100140.0;;;7.7
58307;BMP280;44116;50.884;4.768;2023-04-23T00:04:26;100140.0;;;7.6
58307;BMP280;44116;50.884;4.768;2023-04-23T00:06:26;100140.0;;;7.6
58307;BMP280;44116;50.884;4.768;2023-04-23T00:10:25;100130.0;;;7.5
58307;BMP280;44116;50.884;4.768;2023-04-23T00:12:25;100130.0;;;7.6
58307;BMP280;44116;50.884;4.768;2023-04-23T00:14:24;100130.0;;;7.6
58307;BMP280;44116;50.884;4.768;2023-04-23T00:16:24;100130.0;;;7.5
58307;BMP280;44116;50.884;4.768;2023-04-23T00:20:23;100130.0;;;7.4
58307;BMP280;44116;50.884;4.768;2023-04-23T00:22:23;100120.0;;;7.5
58307;BMP280;44116;50.884;4.768;2023-04-23T00:24:23;100120.0;;;7.5
58307;BMP280;44116;50.884;4.768;2023-04-23T00:26:22;100130.0;;;7.6
58307;BMP280;44116;50.884;4.768;2023-04-23T00:28:22;100130.0;;;7.6
58307;BMP280;44116;50.884;4.768;2023-04-23T00:30:22;100130.0;;;7.6
58307;BMP280;44116;50.884;4.768;2023-04-23T00:32:21;100120.0;;;7.7
58307;BMP280;44116;50.884;4.768;2023-04-23T00:34:21;100120.0;;;7.8
58307;BMP280;44116;50.884;4.768;2023-04-23T00:36:21;100120.0;;;7.9
58307;BMP280;44116;50.884;4.768;2023-04-23T00:38:20;100110.0;;;7.9
58307;BMP280;44116;50.884;4.768;2023-04-23T00:40:20;100110.0;;;7.9
58307;BMP280;44116;50.884;4.768;2023-04-23T00:42:20;100110.0;;;7.9
58307;BMP280;44116;50.884;4.768;2023-04-23T00:46:19;100100.0;;;8.0
58307;BMP280;44116;50.884;4.768;2023-04-23T00:48:19;100110.0;;;8.0
58307;BMP280;44116;50.884;4.768;2023-04-23T00:50:19;100100.0;;;8.0
58307;BMP280;44116;50.884;4.768;2023-04-23T00:52:18;100110.0;;;8.0
58307;BMP280;44116;50.884;4.768;2023-04-23T00:54:18;100110.0;;;8.1
58307;BMP280;44116;50.884;4.768;2023-04-23T00:56:18;100100.0;;;8.1
58307;BMP280;44116;50.884;4.768;2023-04-23T00:58:17;100100.0;;;8.1
58307;BMP280;44116;50.884;4.768;2023-04-23T01:00:18;100090.0;;;8.1
58307;BMP280;44116;50.884;4.768;2023-04-23T01:02:17;100090.0;;;8.1
58307;BMP280;44116;50.884;4.768;2023-04-23T01:04:16;100100.0;;;8.2
58307;BMP280;44116;50.884;4.768;2023-04-23T01:06:16;100090.0;;;8.1
58307;BMP280;44116;50.884;4.768;2023-04-23T01:08:16;100090.0;;;8.1
58307;BMP280;44116;50.884;4.768;2023-04-23T01:10:15;100090.0;;;8.2
58307;BMP280;44116;50.884;4.768;2023-04-23T01:12:15;100090.0;;;8.2
58307;BMP280;44116;50.884;4.768;2023-04-23T01:14:15;100090.0;;;8.2
58307;BMP280;44116;50.884;4.768;2023-04-23T01:16:14;100090.0;;;8.2
58307;BMP280;44116;50.884;4.768;2023-04-23T01:18:14;100090.0;;;8.2
58307;BMP280;44116;50.884;4.768;2023-04-23T01:20:14;100090.0;;;8.3
58307;BMP280;44116;50.884;4.768;2023-04-23T01:22:14;100090.0;;;8.3
58307;BMP280;44116;50.884;4.768;2023-04-23T01:24:13;100080.0;;;8.4
58307;BMP280;44116;50.884;4.768;2023-04-23T01:26:13;100090.0;;;8.3
58307;BMP280;44116;50.884;4.768;2023-04-23T01:28:13;100080.0;;;8.3
58307;BMP280;44116;50.884;4.768;2023-04-23T01:30:12;100090.0;;;8.3
58307;BMP280;44116;50.884;4.768;2023-04-23T01:32:12;100090.0;;;8.3
58307;BMP280;44116;50.884;4.768;2023-04-23T01:34:11;100090.0;;;8.3
58307;BMP280;44116;50.884;4.768;2023-04-23T01:36:11;100090.0;;;8.2
58307;BMP280;44116;50.884;4.768;2023-04-23T01:38:11;100090.0;;;8.2
58307;BMP280;44116;50.884;4.768;2023-04-23T01:42:10;100090.0;;;8.2
58307;BMP280;44116;50.884;4.768;2023-04-23T01:46:10;100090.0;;;8.3
58307;BMP280;44116;50.884;4.768;2023-04-23T01:48:10;100090.0;;;8.3
58307;BMP280;44116;50.884;4.768;2023-04-23T01:50:09;100090.0;;;8.4
58307;BMP280;44116;50.884;4.768;2023-04-23T01:52:09;100090.0;;;8.4
58307;BMP280;44116;50.884;4.768;2023-04-23T01:54:08;100090.0;;;8.4
58307;BMP280;44116;50.884;4.768;2023-04-23T01:56:08;100090.0;;;8.4
58307;BMP280;44116;50.884;4.768;2023-04-23T01:58:08;100090.0;;;8.5
58307;BMP280;44116;50.884;4.768;2023-04-23T02:00:08;100090.0;;;8.5
58307;BMP280;44116;50.884;4.768;2023-04-23T02:02:07;100090.0;;;8.5
58307;BMP280;44116;50.884;4.768;2023-04-23T02:04:07;100090.0;;;8.5
58307;BMP280;44116;50.884;4.768;2023-04-23T02:06:07;100090.0;;;8.6
58307;BMP280;44116;50.884;4.768;2023-04-23T02:08:06;100090.0;;;8.6
58307;BMP280;44116;50.884;4.768;2023-04-23T02:10:06;100090.0;;;8.6
58307;BMP280;44116;50.884;4.768;2023-04-23T02:12:06;100090.0;;;8.6
58307;BMP280;44116;50.884;4.768;2023-04-23T02:14:05;100090.0;;;8.6
58307;BMP280;44116;50.884;4.768;2023-04-23T02:16:05;100090.0;;;8.6
58307;BMP280;44116;50.884;4.768;2023-04-23T02:18:05;100080.0;;;8.7
58307;BMP280;44116;50.884;4.768;2023-04-23T02:20:05;100080.0;;;8.7
58307;BMP280;44116;50.884;4.768;2023-04-23T02:22:04;100070.0;;;8.7
58307;BMP280;44116;50.884;4.768;2023-04-23T02:24:04;100070.0;;;8.7
58307;BMP280;44116;50.884;4.768;2023-04-23T02:26:04;100070.0;;;8.7
58307;BMP280;44116;50.884;4.768;2023-04-23T02:28:03;100070.0;;;8.7
58307;BMP280;44116;50.884;4.768;2023-04-23T02:30:03;100070.0;;;8.7
58307;BMP280;44116;50.884;4.768;2023-04-23T02:32:03;100070.0;;;8.7
58307;BMP280;44116;50.884;4.768;2023-04-23T02:34:02;100070.0;;;8.7
58307;BMP280;44116;50.884;4.768;2023-04-23T02:36:02;100080.0;;;8.7
58307;BMP280;44116;50.884;4.768;2023-04-23T02:38:02;100070.0;;;8.7
58307;BMP280;44116;50.884;4.768;2023-04-23T02:40:02;100070.0;;;8.7
58307;BMP280;44116;50.884;4.768;2023-04-23T02:44:01;100070.0;;;8.6
58307;BMP280;44116;50.884;4.768;2023-04-23T02:46:00;100080.0;;;8.6
58307;BMP280;44116;50.884;4.768;2023-04-23T02:48:00;100080.0;;;8.6
58307;BMP280;44116;50.884;4.768;2023-04-23T02:52:00;100080.0;;;8.5
58307;BMP280;44116;50.884;4.768;2023-04-23T02:53:59;100080.0;;;8.4
58307;BMP280;44116;50.884;4.768;2023-04-23T02:55:59;100080.0;;;8.4
58307;BMP280;44116;50.884;4.768;2023-04-23T02:57:59;100080.0;;;8.4
58307;BMP280;44116;50.884;4.768;2023-04-23T02:59:58;100080.0;;;8.3
58307;BMP280;44116;50.884;4.768;2023-04-23T03:01:58;100070.0;;;8.3
58307;BMP280;44116;50.884;4.768;2023-04-23T03:05:57;100080.0;;;8.2
58307;BMP280;44116;50.884;4.768;2023-04-23T03:07:57;100080.0;;;8.2
58307;BMP280;44116;50.884;4.768;2023-04-23T03:11:57;100080.0;;;8.1
58307;BMP280;44116;50.884;4.768;2023-04-23T03:15:56;100080.0;;;8.1
58307;BMP280;44116;50.884;4.768;2023-04-23T03:17:56;100080.0;;;8.1
58307;BMP280;44116;50.884;4.768;2023-04-23T03:19:55;100080.0;;;8.1
58307;BMP280;44116;50.884;4.768;2023-04-23T03:21:55;100070.0;;;8.0
58307;BMP280;44116;50.884;4.768;2023-04-23T03:23:55;100070.0;;;8.0
58307;BMP280;44116;50.884;4.768;2023-04-23T03:25:54;100070.0;;;8.0
58307;BMP280;44116;50.884;4.768;2023-04-23T03:27:54;100070.0;;;8.1
58307;BMP280;44116;50.884;4.768;2023-04-23T03:29:54;100070.0;;;8.0
58307;BMP280;44116;50.884;4.768;2023-04-23T03:31:53;100080.0;;;8.0
58307;BMP280;44116;50.884;4.768;2023-04-23T03:33:53;100070.0;;;8.0
58307;BMP280;44116;50.884;4.768;2023-04-23T03:35:53;100070.0;;;8.0
58307;BMP280;44116;50.884;4.768;2023-04-23T03:39:52;100070.0;;;7.9
58307;BMP280;44116;50.884;4.768;2023-04-23T03:43:52;100080.0;;;8.0
58307;BMP280;44116;50.884;4.768;2023-04-23T03:45:51;100080.0;;;7.9
58307;BMP280;44116;50.884;4.768;2023-04-23T03:47:51;100080.0;;;7.9
58307;BMP280;44116;50.884;4.768;2023-04-23T03:49:51;100080.0;;;7.9
58307;BMP280;44116;50.884;4.768;2023-04-23T03:51:50;100080.0;;;7.8
58307;BMP280;44116;50.884;4.768;2023-04-23T03:53:50;100080.0;;;7.8
58307;BMP280;44116;50.884;4.768;2023-04-23T03:57:49;100070.0;;;7.8
58307;BMP280;44116;50.884;4.768;2023-04-23T03:59:49;100070.0;;;7.8
58307;BMP280;44116;50.884;4.768;2023-04-23T04:01:49;100080.0;;;7.8
58307;BMP280;44116;50.884;4.768;2023-04-23T04:03:48;100080.0;;;7.8
58307;BMP280;44116;50.884;4.768;2023-04-23T04:05:48;100080.0;;;7.8
58307;BMP280;44116;50.884;4.768;2023-04-23T04:07:48;100070.0;;;7.8
58307;BMP280;44116;50.884;4.768;2023-04-23T04:11:47;100070.0;;;7.8
58307;BMP280;44116;50.884;4.768;2023-04-23T04:13:47;100070.0;;;7.8
58307;BMP280;44116;50.884;4.768;2023-04-23T04:15:46;100070.0;;;7.8
58307;BMP280;44116;50.884;4.768;2023-04-23T04:17:46;100070.0;;;7.8
58307;BMP280;44116;50.884;4.768;2023-04-23T04:19:46;100080.0;;;7.8
58307;BMP280;44116;50.884;4.768;2023-04-23T04:21:45;100070.0;;;7.7
58307;BMP280;44116;50.884;4.768;2023-04-23T04:23:45;100080.0;;;7.7
58307;BMP280;44116;50.884;4.768;2023-04-23T04:25:45;100080.0;;;7.7
58307;BMP280;44116;50.884;4.768;2023-04-23T04:27:44;100080.0;;;7.7
58307;BMP280;44116;50.884;4.768;2023-04-23T04:29:44;100080.0;;;7.7
58307;BMP280;44116;50.884;4.768;2023-04-23T04:31:44;100070.0;;;7.7
58307;BMP280;44116;50.884;4.768;2023-04-23T04:33:43;100080.0;;;7.7
58307;BMP280;44116;50.884;4.768;2023-04-23T04:35:43;100090.0;;;7.7
58307;BMP280;44116;50.884;4.768;2023-04-23T04:37:43;100090.0;;;7.7
58307;BMP280;44116;50.884;4.768;2023-04-23T04:39:42;100090.0;;;7.7
58307;BMP280;44116;50.884;4.768;2023-04-23T04:41:42;100080.0;;;7.7
58307;BMP280;44116;50.884;4.768;2023-04-23T04:43:42;100090.0;;;7.6
58307;BMP280;44116;50.884;4.768;2023-04-23T04:45:41;100090.0;;;7.7
58307;BMP280;44116;50.884;4.768;2023-04-23T04:47:41;100090.0;;;7.7
58307;BMP280;44116;50.884;4.768;2023-04-23T04:49:41;100090.0;;;7.7
58307;BMP280;44116;50.884;4.768;2023-04-23T04:51:40;100080.0;;;7.7
58307;BMP280;44116;50.884;4.768;2023-04-23T04:53:40;100080.0;;;7.7
58307;BMP280;44116;50.884;4.768;2023-04-23T04:55:40;100080.0;;;7.7
58307;BMP280;44116;50.884;4.768;2023-04-23T04:57:39;100080.0;;;7.7
58307;BMP280;44116;50.884;4.768;2023-04-23T04:59:39;100080.0;;;7.7
58307;BMP280;44116;50.884;4.768;2023-04-23T05:01:39;100080.0;;;7.7
58307;BMP280;44116;50.884;4.768;2023-04-23T05:03:38;100080.0;;;7.6
58307;BMP280;44116;50.884;4.768;2023-04-23T05:05:38;100080.0;;;7.7
58307;BMP280;44116;50.884;4.768;2023-04-23T05:07:38;100080.0;;;7.7
58307;BMP280;44116;50.884;4.768;2023-04-23T05:09:37;100080.0;;;7.7
58307;BMP280;44116;50.884;4.768;2023-04-23T05:11:37;100080.0;;;7.8
58307;BMP280;44116;50.884;4.768;2023-04-23T05:13:37;100080.0;;;7.8
58307;BMP280;44116;50.884;4.768;2023-04-23T05:15:36;100080.0;;;7.8
58307;BMP280;44116;50.884;4.768;2023-04-23T05:17:36;100080.0;;;7.8
58307;BMP280;44116;50.884;4.768;2023-04-23T05:21:36;100080.0;;;7.9
58307;BMP280;44116;50.884;4.768;2023-04-23T05:23:35;100080.0;;;7.9
58307;BMP280;44116;50.884;4.768;2023-04-23T05:25:35;100080.0;;;7.9
58307;BMP280;44116;50.884;4.768;2023-04-23T05:27:35;100080.0;;;8.0
58307;BMP280;44116;50.884;4.768;2023-04-23T05:29:34;100080.0;;;8.0
58307;BMP280;44116;50.884;4.768;2023-04-23T05:31:34;100080.0;;;8.1
58307;BMP280;44116;50.884;4.768;2023-04-23T05:33:34;100070.0;;;8.0
58307;BMP280;44116;50.884;4.768;2023-04-23T05:35:33;100080.0;;;8.1
58307;BMP280;44116;50.884;4.768;2023-04-23T05:39:33;100080.0;;;8.1
58307;BMP280;44116;50.884;4.768;2023-04-23T05:41:32;100080.0;;;8.2
58307;BMP280;44116;50.884;4.768;2023-04-23T05:43:32;100070.0;;;8.2
58307;BMP280;44116;50.884;4.768;2023-04-23T05:45:32;100070.0;;;8.3
58307;BMP280;44116;50.884;4.768;2023-04-23T05:47:31;100080.0;;;8.4
58307;BMP280;44116;50.884;4.768;2023-04-23T05:49:31;100080.0;;;8.4
58307;BMP280;44116;50.884;4.768;2023-04-23T05:51:31;100080.0;;;8.4
58307;BMP280;44116;50.884;4.768;2023-04-23T05:53:30;100070.0;;;8.5
58307;BMP280;44116;50.884;4.768;2023-04-23T05:55:30;100070.0;;;8.6
58307;BMP280;44116;50.884;4.768;2023-04-23T05:57:30;100070.0;;;8.7
58307;BMP280;44116;50.884;4.768;2023-04-23T06:01:29;100060.0;;;8.7
58307;BMP280;44116;50.884;4.768;2023-04-23T06:03:29;100060.0;;;8.8
58307;BMP280;44116;50.884;4.768;2023-04-23T06:05:28;100060.0;;;8.9
58307;BMP280;44116;50.884;4.768;2023-04-23T06:07:28;100070.0;;;9.0
58307;BMP280;44116;50.884;4.768;2023-04-23T06:09:28;100070.0;;;9.0
58307;BMP280;44116;50.884;4.768;2023-04-23T06:11:28;100070.0;;;9.0
58307;BMP280;44116;50.884;4.768;2023-04-23T06:13:27;100070.0;;;9.1
58307;BMP280;44116;50.884;4.768;2023-04-23T06:15:27;100070.0;;;9.2
58307;BMP280;44116;50.884;4.768;2023-04-23T06:17:27;100070.0;;;9.2
58307;BMP280;44116;50.884;4.768;2023-04-23T06:19:26;100070.0;;;9.2
58307;BMP280;44116;50.884;4.768;2023-04-23T06:21:26;100070.0;;;9.3
58307;BMP280;44116;50.884;4.768;2023-04-23T06:23:26;100070.0;;;9.4
58307;BMP280;44116;50.884;4.768;2023-04-23T06:27:25;100070.0;;;9.5
58307;BMP280;44116;50.884;4.768;2023-04-23T06:29:25;100070.0;;;9.6
58307;BMP280;44116;50.884;4.768;2023-04-23T06:31:25;100070.0;;;9.6
58307;BMP280;44116;50.884;4.768;2023-04-23T06:33:24;100070.0;;;9.7
58307;BMP280;44116;50.884;4.768;2023-04-23T06:35:24;100070.0;;;9.8
58307;BMP280;44116;50.884;4.768;2023-04-23T06:37:24;100070.0;;;9.8
58307;BMP280;44116;50.884;4.768;2023-04-23T06:39:24;100060.0;;;10.0
58307;BMP280;44116;50.884;4.768;2023-04-23T06:41:23;100060.0;;;10.0
58307;BMP280;44116;50.884;4.768;2023-04-23T06:43:23;100060.0;;;10.1
58307;BMP280;44116;50.884;4.768;2023-04-23T06:45:23;100050.0;;;10.2
58307;BMP280;44116;50.884;4.768;2023-04-23T06:47:22;100050.0;;;10.2
58307;BMP280;44116;50.884;4.768;2023-04-23T06:49:22;100050.0;;;10.3
58307;BMP280;44116;50.884;4.768;2023-04-23T06:51:23;100050.0;;;10.3
58307;BMP280;44116;50.884;4.768;2023-04-23T06:53:22;100050.0;;;10.4
58307;BMP280;44116;50.884;4.768;2023-04-23T06:55:21;100050.0;;;10.5
58307;BMP280;44116;50.884;4.768;2023-04-23T06:57:21;100040.0;;;10.5
58307;BMP280;44116;50.884;4.768;2023-04-23T07:01:20;100040.0;;;10.7
58307;BMP280;44116;50.884;4.768;2023-04-23T07:03:20;100040.0;;;10.7
58307;BMP280;44116;50.884;4.768;2023-04-23T07:07:20;100050.0;;;10.8
58307;BMP280;44116;50.884;4.768;2023-04-23T07:09:19;100050.0;;;10.9
58307;BMP280;44116;50.884;4.768;2023-04-23T07:11:19;100050.0;;;10.9
58307;BMP280;44116;50.884;4.768;2023-04-23T07:13:19;100050.0;;;10.9
58307;BMP280;44116;50.884;4.768;2023-04-23T07:15:19;100050.0;;;11.1
58307;BMP280;44116;50.884;4.768;2023-04-23T07:17:18;100050.0;;;11.1
58307;BMP280;44116;50.884;4.768;2023-04-23T07:19:18;100040.0;;;11.1
58307;BMP280;44116;50.884;4.768;2023-04-23T07:23:18;100040.0;;;11.4
58307;BMP280;44116;50.884;4.768;2023-04-23T07:25:17;100040.0;;;11.4
58307;BMP280;44116;50.884;4.768;2023-04-23T07:27:17;100030.0;;;11.5
58307;BMP280;44116;50.884;4.768;2023-04-23T07:29:17;100030.0;;;11.5
58307;BMP280;44116;50.884;4.768;2023-04-23T07:31:17;100030.0;;;11.6
58307;BMP280;44116;50.884;4.768;2023-04-23T07:33:16;100030.0;;;11.7
58307;BMP280;44116;50.884;4.768;2023-04-23T07:35:16;100030.0;;;11.8
58307;BMP280;44116;50.884;4.768;2023-04-23T07:37:16;100030.0;;;11.7
58307;BMP280;44116;50.884;4.768;2023-04-23T07:39:15;100040.0;;;11.7
58307;BMP280;44116;50.884;4.768;2023-04-23T07:43:15;100040.0;;;11.9
58307;BMP280;44116;50.884;4.768;2023-04-23T07:47:15;100050.0;;;12.0
58307;BMP280;44116;50.884;4.768;2023-04-23T07:49:14;100060.0;;;11.9
58307;BMP280;44116;50.884;4.768;2023-04-23T07:51:14;100050.0;;;11.8
58307;BMP280;44116;50.884;4.768;2023-04-23T07:53:14;100050.0;;;11.9
58307;BMP280;44116;50.884;4.768;2023-04-23T07:55:14;100050.0;;;11.9
58307;BMP280;44116;50.884;4.768;2023-04-23T07:57:13;100050.0;;;11.9
58307;BMP280;44116;50.884;4.768;2023-04-23T08:01:13;100040.0;;;12.1
58307;BMP280;44116;50.884;4.768;2023-04-23T08:03:13;100040.0;;;12.2
58307;BMP280;44116;50.884;4.768;2023-04-23T08:05:12;100040.0;;;12.3
58307;BMP280;44116;50.884;4.768;2023-04-23T08:07:12;100030.0;;;12.5
58307;BMP280;44116;50.884;4.768;2023-04-23T08:09:12;100040.0;;;12.5
58307;BMP280;44116;50.884;4.768;2023-04-23T08:11:12;100040.0;;;12.6
58307;BMP280;44116;50.884;4.768;2023-04-23T08:15:11;100040.0;;;12.8
58307;BMP280;44116;50.884;4.768;2023-04-23T08:17:11;100040.0;;;12.7
58307;BMP280;44116;50.884;4.768;2023-04-23T08:19:11;100040.0;;;12.6
58307;BMP280;44116;50.884;4.768;2023-04-23T08:21:11;100050.0;;;12.7
58307;BMP280;44116;50.884;4.768;2023-04-23T08:23:10;100050.0;;;12.8
58307;BMP280;44116;50.884;4.768;2023-04-23T08:27:10;100040.0;;;13.0
58307;BMP280;44116;50.884;4.768;2023-04-23T08:31:09;100040.0;;;13.1
58307;BMP280;44116;50.884;4.768;2023-04-23T08:33:09;100050.0;;;13.1
58307;BMP280;44116;50.884;4.768;2023-04-23T08:35:09;100050.0;;;13.2
58307;BMP280;44116;50.884;4.768;2023-04-23T08:37:09;100050.0;;;13.2
58307;BMP280;44116;50.884;4.768;2023-04-23T08:39:09;100050.0;;;13.2
58307;BMP280;44116;50.884;4.768;2023-04-23T08:41:09;100050.0;;;13.3
58307;BMP280;44116;50.884;4.768;2023-04-23T08:43:09;100050.0;;;13.3
58307;BMP280;44116;50.884;4.768;2023-04-23T08:45:08;100050.0;;;13.4
58307;BMP280;44116;50.884;4.768;2023-04-23T08:47:09;100050.0;;;13.5
58307;BMP280;44116;50.884;4.768;2023-04-23T08:49:08;100050.0;;;13.4
58307;BMP280;44116;50.884;4.768;2023-04-23T08:51:07;100070.0;;;13.3
58307;BMP280;44116;50.884;4.768;2023-04-23T08:53:08;100070.0;;;13.3
58307;BMP280;44116;50.884;4.768;2023-04-23T08:55:08;100070.0;;;13.3
58307;BMP280;44116;50.884;4.768;2023-04-23T08:57:07;100060.0;;;13.3
58307;BMP280;44116;50.884;4.768;2023-04-23T08:59:07;100070.0;;;13.3
58307;BMP280;44116;50.884;4.768;2023-04-23T09:01:06;100060.0;;;13.3
58307;BMP280;44116;50.884;4.768;2023-04-23T09:03:06;100060.0;;;13.3
58307;BMP280;44116;50.884;4.768;2023-04-23T09:05:06;100050.0;;;13.4
58307;BMP280;44116;50.884;4.768;2023-04-23T09:07:06;100060.0;;;13.4
58307;BMP280;44116;50.884;4.768;2023-04-23T09:09:05;100050.0;;;13.5
58307;BMP280;44116;50.884;4.768;2023-04-23T09:11:05;100050.0;;;13.5
58307;BMP280;44116;50.884;4.768;2023-04-23T09:15:05;100050.0;;;13.5
58307;BMP280;44116;50.884;4.768;2023-04-23T09:17:05;100050.0;;;13.6
58307;BMP280;44116;50.884;4.768;2023-04-23T09:19:04;100050.0;;;13.7
58307;BMP280;44116;50.884;4.768;2023-04-23T09:21:04;100040.0;;;13.8
58307;BMP280;44116;50.884;4.768;2023-04-23T09:23:05;100050.0;;;13.7
58307;BMP280;44116;50.884;4.768;2023-04-23T09:25:04;100050.0;;;13.7
58307;BMP280;44116;50.884;4.768;2023-04-23T09:29:04;100050.0;;;13.9
58307;BMP280;44116;50.884;4.768;2023-04-23T09:31:04;100040.0;;;14.1
58307;BMP280;44116;50.884;4.768;2023-04-23T09:33:03;100040.0;;;14.1
58307;BMP280;44116;50.884;4.768;2023-04-23T09:35:03;100040.0;;;14.1
58307;BMP280;44116;50.884;4.768;2023-04-23T09:37:04;100040.0;;;14.2
58307;BMP280;44116;50.884;4.768;2023-04-23T09:39:03;100050.0;;;14.2
58307;BMP280;44116;50.884;4.768;2023-04-23T09:43:03;100050.0;;;14.2
58307;BMP280;44116;50.884;4.768;2023-04-23T09:45:03;100050.0;;;14.2
58307;BMP280;44116;50.884;4.768;2023-04-23T09:47:05;100050.0;;;14.2
58307;BMP280;44116;50.884;4.768;2023-04-23T09:49:02;100040.0;;;14.4
58307;BMP280;44116;50.884;4.768;2023-04-23T09:51:01;100050.0;;;14.4
58307;BMP280;44116;50.884;4.768;2023-04-23T09:53:01;100040.0;;;14.4
58307;BMP280;44116;50.884;4.768;2023-04-23T09:55:02;100040.0;;;14.4
58307;BMP280;44116;50.884;4.768;2023-04-23T09:57:01;100040.0;;;14.4
58307;BMP280;44116;50.884;4.768;2023-04-23T09:59:01;100040.0;;;14.4
58307;BMP280;44116;50.884;4.768;2023-04-23T10:01:05;100040.0;;;14.4
58307;BMP280;44116;50.884;4.768;2023-04-23T10:03:00;100030.0;;;14.5
58307;BMP280;44116;50.884;4.768;2023-04-23T10:05:00;100030.0;;;14.5
58307;BMP280;44116;50.884;4.768;2023-04-23T10:07:01;100030.0;;;14.5
58307;BMP280;44116;50.884;4.768;2023-04-23T10:09:00;100040.0;;;14.5
58307;BMP280;44116;50.884;4.768;2023-04-23T10:11:00;100030.0;;;14.6
58307;BMP280;44116;50.884;4.768;2023-04-23T10:12:59;100030.0;;;14.7
58307;BMP280;44116;50.884;4.768;2023-04-23T10:14:59;100030.0;;;14.8
58307;BMP280;44116;50.884;4.768;2023-04-23T10:17:00;100020.0;;;14.9
58307;BMP280;44116;50.884;4.768;2023-04-23T10:18:59;100020.0;;;15.0
58307;BMP280;44116;50.884;4.768;2023-04-23T10:20:59;100010.0;;;15.1
58307;BMP280;44116;50.884;4.768;2023-04-23T10:22:59;100020.0;;;15.0
58307;BMP280;44116;50.884;4.768;2023-04-23T10:24:59;100020.0;;;15.0
58307;BMP280;44116;50.884;4.768;2023-04-23T10:26:59;100020.0;;;14.9
58307;BMP280;44116;50.884;4.768;2023-04-23T10:28:58;100020.0;;;14.8
58307;BMP280;44116;50.884;4.768;2023-04-23T10:32:58;100020.0;;;14.9
58307;BMP280;44116;50.884;4.768;2023-04-23T10:34:58;100020.0;;;14.9
58307;BMP280;44116;50.884;4.768;2023-04-23T10:36:58;100010.0;;;14.9
58307;BMP280;44116;50.884;4.768;2023-04-23T10:38:57;100010.0;;;14.9
58307;BMP280;44116;50.884;4.768;2023-04-23T10:40:57;100000.0;;;15.0
58307;BMP280;44116;50.884;4.768;2023-04-23T10:42:57;100000.0;;;15.1
58307;BMP280;44116;50.884;4.768;2023-04-23T10:44:57;100000.0;;;15.2
58307;BMP280;44116;50.884;4.768;2023-04-23T10:46:57;100000.0;;;15.3
58307;BMP280;44116;50.884;4.768;2023-04-23T10:49:04;99990.0;;;15.2
58307;BMP280;44116;50.884;4.768;2023-04-23T10:50:57;99990.0;;;15.2
58307;BMP280;44116;50.884;4.768;2023-04-23T10:52:56;99990.0;;;15.3
58307;BMP280;44116;50.884;4.768;2023-04-23T10:54:56;99990.0;;;15.2
58307;BMP280;44116;50.884;4.768;2023-04-23T10:56:57;99980.0;;;15.1
58307;BMP280;44116;50.884;4.768;2023-04-23T10:58:56;99970.0;;;15.0
58307;BMP280;44116;50.884;4.768;2023-04-23T11:00:56;99970.0;;;14.9
58307;BMP280;44116;50.884;4.768;2023-04-23T11:02:55;99970.0;;;14.9
58307;BMP280;44116;50.884;4.768;2023-04-23T11:04:56;99960.0;;;14.9
58307;BMP280;44116;50.884;4.768;2023-04-23T11:06:56;99970.0;;;14.9
58307;BMP280;44116;50.884;4.768;2023-04-23T11:08:55;99960.0;;;14.9
58307;BMP280;44116;50.884;4.768;2023-04-23T11:10:55;99960.0;;;14.9
58307;BMP280;44116;50.884;4.768;2023-04-23T11:12:55;99950.0;;;14.8
58307;BMP280;44116;50.884;4.768;2023-04-23T11:16:54;99940.0;;;14.9
58307;BMP280;44116;50.884;4.768;2023-04-23T11:18:55;99940.0;;;14.9
58307;BMP280;44116;50.884;4.768;2023-04-23T11:20:55;99940.0;;;14.9
58307;BMP280;44116;50.884;4.768;2023-04-23T11:22:54;99930.0;;;14.9
58307;BMP280;44116;50.884;4.768;2023-04-23T11:24:54;99930.0;;;14.9
58307;BMP280;44116;50.884;4.768;2023-04-23T11:26:54;99920.0;;;14.8
58307;BMP280;44116;50.884;4.768;2023-04-23T11:28:53;99920.0;;;14.9
58307;BMP280;44116;50.884;4.768;2023-04-23T11:30:53;99920.0;;;14.9
58307;BMP280;44116;50.884;4.768;2023-04-23T11:34:53;99910.0;;;14.9
58307;BMP280;44116;50.884;4.768;2023-04-23T11:36:53;99910.0;;;14.9
58307;BMP280;44116;50.884;4.768;2023-04-23T11:38:54;99910.0;;;14.9
58307;BMP280;44116;50.884;4.768;2023-04-23T11:40:52;99900.0;;;14.9
58307;BMP280;44116;50.884;4.768;2023-04-23T11:44:52;99900.0;;;15.0
58307;BMP280;44116;50.884;4.768;2023-04-23T11:46:52;99900.0;;;15.1
58307;BMP280;44116;50.884;4.768;2023-04-23T11:48:52;99890.0;;;15.1
58307;BMP280;44116;50.884;4.768;2023-04-23T11:50:52;99890.0;;;15.2
58307;BMP280;44116;50.884;4.768;2023-04-23T11:52:52;99870.0;;;15.2
58307;BMP280;44116;50.884;4.768;2023-04-23T11:54:51;99870.0;;;15.2
58307;BMP280;44116;50.884;4.768;2023-04-23T11:56:52;99880.0;;;15.3
58307;BMP280;44116;50.884;4.768;2023-04-23T11:58:57;99870.0;;;15.4
58307;BMP280;44116;50.884;4.768;2023-04-23T12:00:55;99860.0;;;15.3
58307;BMP280;44116;50.884;4.768;2023-04-23T12:02:51;99860.0;;;15.4
58307;BMP280;44116;50.884;4.768;2023-04-23T12:04:51;99860.0;;;15.3
58307;BMP280;44116;50.884;4.768;2023-04-23T12:06:51;99850.0;;;15.1
58307;BMP280;44116;50.884;4.768;2023-04-23T12:08:50;99860.0;;;15.0
58307;BMP280;44116;50.884;4.768;2023-04-23T12:10:51;99850.0;;;14.9
58307;BMP280;44116;50.884;4.768;2023-04-23T12:12:50;99850.0;;;14.9
58307;BMP280;44116;50.884;4.768;2023-04-23T12:14:50;99850.0;;;14.8
58307;BMP280;44116;50.884;4.768;2023-04-23T12:16:50;99860.0;;;14.6
58307;BMP280;44116;50.884;4.768;2023-04-23T12:18:52;99850.0;;;14.5
58307;BMP280;44116;50.884;4.768;2023-04-23T12:20:49;99860.0;;;14.5
58307;BMP280;44116;50.884;4.768;2023-04-23T12:22:49;99850.0;;;14.3
58307;BMP280;44116;50.884;4.768;2023-04-23T12:24:49;99850.0;;;14.3
58307;BMP280;44116;50.884;4.768;2023-04-23T12:26:50;99850.0;;;14.2
58307;BMP280;44116;50.884;4.768;2023-04-23T12:28:49;99850.0;;;14.1
58307;BMP280;44116;50.884;4.768;2023-04-23T12:30:49;99850.0;;;14.0
58307;BMP280;44116;50.884;4.768;2023-04-23T12:32:49;99860.0;;;14.0
58307;BMP280;44116;50.884;4.768;2023-04-23T12:34:50;99870.0;;;13.9
58307;BMP280;44116;50.884;4.768;2023-04-23T12:36:49;99870.0;;;13.7
58307;BMP280;44116;50.884;4.768;2023-04-23T12:38:48;99870.0;;;13.6
58307;BMP280;44116;50.884;4.768;2023-04-23T12:40:48;99870.0;;;13.4
58307;BMP280;44116;50.884;4.768;2023-04-23T12:42:48;99870.0;;;13.4
58307;BMP280;44116;50.884;4.768;2023-04-23T12:44:48;99870.0;;;13.1
58307;BMP280;44116;50.884;4.768;2023-04-23T12:46:48;99870.0;;;13.2
58307;BMP280;44116;50.884;4.768;2023-04-23T12:48:47;99870.0;;;13.3
58307;BMP280;44116;50.884;4.768;2023-04-23T12:50:47;99860.0;;;13.2
58307;BMP280;44116;50.884;4.768;2023-04-23T12:52:47;99870.0;;;13.1
58307;BMP280;44116;50.884;4.768;2023-04-23T12:54:47;99870.0;;;13.1